sensor_id;sensor_type;location;lat;lon;timestamp;P1;durP1;ratioP1;P2;durP2;ratioP2
35795;SDS011;21916;52.428;13.302;2022-08-24T00:01:18;6.90;;;4.97;;
35795;SDS011;21916;52.428;13.302;2022-08-24T00:03:44;8.98;;;5.43;;
35795;SDS011;21916;52.428;13.302;2022-08-24T00:06:12;12.80;;;5.18;;
35795;SDS011;21916;52.428;13.302;2022-08-24T00:08:40;11.23;;;5.50;;
35795;SDS011;21916;52.428;13.302;2022-08-24T00:11:06;9.35;;;5.05;;
35795;SDS011;21916;52.428;13.302;2022-08-24T00:13:33;8.95;;;5.25;;
35795;SDS011;21916;52.428;13.302;2022-08-24T00:15:59;10.15;;;5.07;;
35795;SDS011;21916;52.428;13.302;2022-08-24T00:18:26;7.70;;;4.78;;
35795;SDS011;21916;52.428;13.302;2022-08-24T00:20:54;7.80;;;4.97;;
35795;SDS011;21916;52.428;13.302;2022-08-24T00:23:20;9.90;;;5.15;;
35795;SDS011;21916;52.428;13.302;2022-08-24T00:25:46;9.30;;;4.85;;
35795;SDS011;21916;52.428;13.302;2022-08-24T00:28:12;8.85;;;5.10;;
35795;SDS011;21916;52.428;13.302;2022-08-24T00:30:39;11.43;;;5.00;;
35795;SDS011;21916;52.428;13.302;2022-08-24T00:33:05;7.47;;;4.90;;
35795;SDS011;21916;52.428;13.302;2022-08-24T00:35:32;9.40;;;5.13;;
35795;SDS011;21916;52.428;13.302;2022-08-24T00:37:58;8.35;;;5.45;;
35795;SDS011;21916;52.428;13.302;2022-08-24T00:40:28;11.43;;;4.80;;
35795;SDS011;21916;52.428;13.302;2022-08-24T00:43:00;9.45;;;4.82;;
35795;SDS011;21916;52.428;13.302;2022-08-24T00:45:29;10.93;;;4.88;;
35795;SDS011;21916;52.428;13.302;2022-08-24T00:47:58;8.88;;;4.88;;
35795;SDS011;21916;52.428;13.302;2022-08-24T00:50:33;9.23;;;5.45;;
35795;SDS011;21916;52.428;13.302;2022-08-24T00:53:08;7.97;;;5.10;;
35795;SDS011;21916;52.428;13.302;2022-08-24T00:55:41;7.68;;;4.85;;
35795;SDS011;21916;52.428;13.302;2022-08-24T00:58:15;10.63;;;5.13;;
35795;SDS011;21916;52.428;13.302;2022-08-24T01:00:50;7.90;;;4.97;;
35795;SDS011;21916;52.428;13.302;2022-08-24T01:03:20;9.50;;;5.50;;
35795;SDS011;21916;52.428;13.302;2022-08-24T01:05:47;7.50;;;4.88;;
35795;SDS011;21916;52.428;13.302;2022-08-24T01:08:13;9.32;;;5.57;;
35795;SDS011;21916;52.428;13.302;2022-08-24T01:10:41;9.35;;;5.72;;
35795;SDS011;21916;52.428;13.302;2022-08-24T01:13:10;11.57;;;5.55;;
35795;SDS011;21916;52.428;13.302;2022-08-24T01:15:39;7.60;;;5.47;;
35795;SDS011;21916;52.428;13.302;2022-08-24T01:18:10;12.60;;;5.93;;
35795;SDS011;21916;52.428;13.302;2022-08-24T01:23:43;9.55;;;5.90;;
35795;SDS011;21916;52.428;13.302;2022-08-24T01:26:14;8.98;;;5.40;;
35795;SDS011;21916;52.428;13.302;2022-08-24T01:29:13;9.52;;;5.40;;
35795;SDS011;21916;52.428;13.302;2022-08-24T01:31:57;6.95;;;5.38;;
35795;SDS011;21916;52.428;13.302;2022-08-24T01:34:23;11.20;;;5.63;;
35795;SDS011;21916;52.428;13.302;2022-08-24T01:36:50;10.13;;;6.10;;
35795;SDS011;21916;52.428;13.302;2022-08-24T01:39:21;9.88;;;6.25;;
35795;SDS011;21916;52.428;13.302;2022-08-24T01:41:57;8.98;;;6.43;;
35795;SDS011;21916;52.428;13.302;2022-08-24T01:44:24;10.30;;;6.00;;
35795;SDS011;21916;52.428;13.302;2022-08-24T01:46:54;8.50;;;5.47;;
35795;SDS011;21916;52.428;13.302;2022-08-24T01:49:25;8.52;;;5.95;;
35795;SDS011;21916;52.428;13.302;2022-08-24T01:51:53;7.07;;;5.28;;
35795;SDS011;21916;52.428;13.302;2022-08-24T01:54:19;9.98;;;5.68;;
35795;SDS011;21916;52.428;13.302;2022-08-24T01:56:45;8.25;;;5.40;;
35795;SDS011;21916;52.428;13.302;2022-08-24T01:59:11;10.65;;;5.70;;
35795;SDS011;21916;52.428;13.302;2022-08-24T02:01:41;9.57;;;5.50;;
35795;SDS011;21916;52.428;13.302;2022-08-24T02:04:10;9.90;;;5.95;;
35795;SDS011;21916;52.428;13.302;2022-08-24T02:06:37;12.75;;;6.00;;
35795;SDS011;21916;52.428;13.302;2022-08-24T02:09:07;12.05;;;6.57;;
35795;SDS011;21916;52.428;13.302;2022-08-24T02:11:33;10.10;;;6.13;;
35795;SDS011;21916;52.428;13.302;2022-08-24T02:14:00;9.18;;;6.25;;
35795;SDS011;21916;52.428;13.302;2022-08-24T02:16:26;11.40;;;6.30;;
35795;SDS011;21916;52.428;13.302;2022-08-24T02:18:53;8.80;;;6.63;;
35795;SDS011;21916;52.428;13.302;2022-08-24T02:21:20;10.95;;;6.22;;
35795;SDS011;21916;52.428;13.302;2022-08-24T02:23:46;8.40;;;6.28;;
35795;SDS011;21916;52.428;13.302;2022-08-24T02:26:13;7.82;;;6.35;;
35795;SDS011;21916;52.428;13.302;2022-08-24T02:28:39;9.77;;;6.63;;
35795;SDS011;21916;52.428;13.302;2022-08-24T02:31:06;7.25;;;6.07;;
35795;SDS011;21916;52.428;13.302;2022-08-24T02:33:36;9.77;;;6.20;;
35795;SDS011;21916;52.428;13.302;2022-08-24T02:36:04;11.38;;;6.90;;
35795;SDS011;21916;52.428;13.302;2022-08-24T02:38:31;12.40;;;6.85;;
35795;SDS011;21916;52.428;13.302;2022-08-24T02:40:58;13.18;;;7.45;;
35795;SDS011;21916;52.428;13.302;2022-08-24T02:43:24;14.05;;;8.50;;
35795;SDS011;21916;52.428;13.302;2022-08-24T02:45:50;14.85;;;8.57;;
35795;SDS011;21916;52.428;13.302;2022-08-24T02:48:20;22.92;;;12.48;;
35795;SDS011;21916;52.428;13.302;2022-08-24T02:50:47;24.33;;;13.98;;
35795;SDS011;21916;52.428;13.302;2022-08-24T02:53:14;30.08;;;16.00;;
35795;SDS011;21916;52.428;13.302;2022-08-24T02:55:42;37.55;;;18.10;;
35795;SDS011;21916;52.428;13.302;2022-08-24T02:58:12;37.30;;;18.45;;
35795;SDS011;21916;52.428;13.302;2022-08-24T03:00:42;53.10;;;21.48;;
35795;SDS011;21916;52.428;13.302;2022-08-24T03:03:15;43.17;;;20.73;;
35795;SDS011;21916;52.428;13.302;2022-08-24T03:05:42;41.35;;;19.60;;
35795;SDS011;21916;52.428;13.302;2022-08-24T03:08:08;50.53;;;21.83;;
35795;SDS011;21916;52.428;13.302;2022-08-24T03:10:34;52.70;;;22.20;;
35795;SDS011;21916;52.428;13.302;2022-08-24T03:13:02;55.03;;;24.20;;
35795;SDS011;21916;52.428;13.302;2022-08-24T03:15:28;52.50;;;23.45;;
35795;SDS011;21916;52.428;13.302;2022-08-24T03:17:55;54.47;;;22.67;;
35795;SDS011;21916;52.428;13.302;2022-08-24T03:20:22;51.50;;;24.50;;
35795;SDS011;21916;52.428;13.302;2022-08-24T03:22:48;58.28;;;23.88;;
35795;SDS011;21916;52.428;13.302;2022-08-24T03:25:16;53.35;;;25.27;;
35795;SDS011;21916;52.428;13.302;2022-08-24T03:27:43;67.05;;;26.65;;
35795;SDS011;21916;52.428;13.302;2022-08-24T03:30:10;64.55;;;27.02;;
35795;SDS011;21916;52.428;13.302;2022-08-24T03:32:39;58.33;;;26.20;;
35795;SDS011;21916;52.428;13.302;2022-08-24T03:35:06;54.97;;;26.40;;
35795;SDS011;21916;52.428;13.302;2022-08-24T03:37:34;59.22;;;26.17;;
35795;SDS011;21916;52.428;13.302;2022-08-24T03:39:59;63.65;;;25.83;;
35795;SDS011;21916;52.428;13.302;2022-08-24T03:42:26;65.25;;;27.42;;
35795;SDS011;21916;52.428;13.302;2022-08-24T03:44:51;63.10;;;27.33;;
35795;SDS011;21916;52.428;13.302;2022-08-24T03:47:17;66.82;;;28.50;;
35795;SDS011;21916;52.428;13.302;2022-08-24T03:49:47;66.78;;;27.95;;
35795;SDS011;21916;52.428;13.302;2022-08-24T03:52:13;60.83;;;27.63;;
35795;SDS011;21916;52.428;13.302;2022-08-24T03:54:42;57.60;;;27.58;;
35795;SDS011;21916;52.428;13.302;2022-08-24T03:57:08;56.13;;;27.23;;
35795;SDS011;21916;52.428;13.302;2022-08-24T03:59:34;57.53;;;27.48;;
35795;SDS011;21916;52.428;13.302;2022-08-24T04:02:00;61.45;;;27.40;;
35795;SDS011;21916;52.428;13.302;2022-08-24T04:04:26;57.47;;;25.98;;
35795;SDS011;21916;52.428;13.302;2022-08-24T04:06:54;59.90;;;27.30;;
35795;SDS011;21916;52.428;13.302;2022-08-24T04:09:23;63.70;;;27.27;;
35795;SDS011;21916;52.428;13.302;2022-08-24T04:11:49;57.28;;;26.63;;
35795;SDS011;21916;52.428;13.302;2022-08-24T04:14:16;49.92;;;25.52;;
35795;SDS011;21916;52.428;13.302;2022-08-24T04:16:46;54.40;;;26.05;;
35795;SDS011;21916;52.428;13.302;2022-08-24T04:19:21;52.78;;;26.27;;
35795;SDS011;21916;52.428;13.302;2022-08-24T04:21:47;59.15;;;26.05;;
35795;SDS011;21916;52.428;13.302;2022-08-24T04:24:15;55.35;;;25.95;;
35795;SDS011;21916;52.428;13.302;2022-08-24T04:26:41;59.35;;;26.38;;
35795;SDS011;21916;52.428;13.302;2022-08-24T04:29:09;57.35;;;25.52;;
35795;SDS011;21916;52.428;13.302;2022-08-24T04:31:41;57.90;;;25.38;;
35795;SDS011;21916;52.428;13.302;2022-08-24T04:34:08;50.72;;;25.80;;
35795;SDS011;21916;52.428;13.302;2022-08-24T04:36:38;54.17;;;24.25;;
35795;SDS011;21916;52.428;13.302;2022-08-24T04:39:05;49.13;;;24.67;;
35795;SDS011;21916;52.428;13.302;2022-08-24T04:41:50;54.47;;;24.83;;
35795;SDS011;21916;52.428;13.302;2022-08-24T04:44:16;52.90;;;25.17;;
35795;SDS011;21916;52.428;13.302;2022-08-24T04:46:43;69.40;;;31.15;;
35795;SDS011;21916;52.428;13.302;2022-08-24T04:49:09;70.63;;;29.40;;
35795;SDS011;21916;52.428;13.302;2022-08-24T04:51:36;70.00;;;27.63;;
35795;SDS011;21916;52.428;13.302;2022-08-24T04:54:04;102.13;;;26.92;;
35795;SDS011;21916;52.428;13.302;2022-08-24T04:56:32;108.75;;;31.20;;
35795;SDS011;21916;52.428;13.302;2022-08-24T04:58:58;139.55;;;26.65;;
35795;SDS011;21916;52.428;13.302;2022-08-24T05:01:26;116.50;;;30.52;;
35795;SDS011;21916;52.428;13.302;2022-08-24T05:03:55;88.28;;;30.13;;
35795;SDS011;21916;52.428;13.302;2022-08-24T05:06:22;115.97;;;28.08;;
35795;SDS011;21916;52.428;13.302;2022-08-24T05:08:50;110.20;;;28.95;;
35795;SDS011;21916;52.428;13.302;2022-08-24T05:11:17;141.85;;;30.58;;
35795;SDS011;21916;52.428;13.302;2022-08-24T05:13:44;133.82;;;26.08;;
35795;SDS011;21916;52.428;13.302;2022-08-24T05:16:12;145.43;;;31.25;;
35795;SDS011;21916;52.428;13.302;2022-08-24T05:18:41;145.02;;;30.40;;
35795;SDS011;21916;52.428;13.302;2022-08-24T05:21:08;95.05;;;28.75;;
35795;SDS011;21916;52.428;13.302;2022-08-24T05:23:37;140.18;;;30.45;;
35795;SDS011;21916;52.428;13.302;2022-08-24T05:26:05;135.07;;;29.23;;
35795;SDS011;21916;52.428;13.302;2022-08-24T05:28:35;151.43;;;28.42;;
35795;SDS011;21916;52.428;13.302;2022-08-24T05:31:09;118.03;;;29.63;;
35795;SDS011;21916;52.428;13.302;2022-08-24T05:33:37;98.22;;;28.52;;
35795;SDS011;21916;52.428;13.302;2022-08-24T05:36:04;110.68;;;26.95;;
35795;SDS011;21916;52.428;13.302;2022-08-24T05:38:31;110.10;;;27.90;;
35795;SDS011;21916;52.428;13.302;2022-08-24T05:40:58;96.95;;;30.30;;
35795;SDS011;21916;52.428;13.302;2022-08-24T05:43:29;77.15;;;26.33;;
35795;SDS011;21916;52.428;13.302;2022-08-24T05:45:55;84.97;;;27.33;;
35795;SDS011;21916;52.428;13.302;2022-08-24T05:48:21;109.43;;;25.88;;
35795;SDS011;21916;52.428;13.302;2022-08-24T05:51:13;92.00;;;25.42;;
35795;SDS011;21916;52.428;13.302;2022-08-24T05:53:53;130.00;;;24.83;;
35795;SDS011;21916;52.428;13.302;2022-08-24T05:56:23;159.25;;;26.67;;
35795;SDS011;21916;52.428;13.302;2022-08-24T05:58:49;107.40;;;24.15;;
35795;SDS011;21916;52.428;13.302;2022-08-24T06:01:16;71.70;;;22.80;;
35795;SDS011;21916;52.428;13.302;2022-08-24T06:03:48;50.65;;;22.73;;
35795;SDS011;21916;52.428;13.302;2022-08-24T06:06:15;94.10;;;23.23;;
35795;SDS011;21916;52.428;13.302;2022-08-24T06:08:44;112.72;;;25.70;;
35795;SDS011;21916;52.428;13.302;2022-08-24T06:11:26;69.18;;;23.73;;
35795;SDS011;21916;52.428;13.302;2022-08-24T06:13:56;37.60;;;22.13;;
35795;SDS011;21916;52.428;13.302;2022-08-24T06:16:33;36.83;;;22.30;;
35795;SDS011;21916;52.428;13.302;2022-08-24T06:19:04;41.83;;;21.50;;
35795;SDS011;21916;52.428;13.302;2022-08-24T06:21:31;35.70;;;21.45;;
35795;SDS011;21916;52.428;13.302;2022-08-24T06:23:58;37.75;;;22.13;;
35795;SDS011;21916;52.428;13.302;2022-08-24T06:26:25;35.47;;;21.77;;
35795;SDS011;21916;52.428;13.302;2022-08-24T06:29:11;40.60;;;22.58;;
35795;SDS011;21916;52.428;13.302;2022-08-24T06:31:43;40.80;;;21.70;;
35795;SDS011;21916;52.428;13.302;2022-08-24T06:34:12;36.70;;;21.67;;
35795;SDS011;21916;52.428;13.302;2022-08-24T06:36:41;40.40;;;21.10;;
35795;SDS011;21916;52.428;13.302;2022-08-24T06:39:08;33.28;;;21.17;;
35795;SDS011;21916;52.428;13.302;2022-08-24T06:41:37;33.25;;;19.83;;
35795;SDS011;21916;52.428;13.302;2022-08-24T06:44:08;31.98;;;19.75;;
35795;SDS011;21916;52.428;13.302;2022-08-24T06:46:45;27.65;;;18.65;;
35795;SDS011;21916;52.428;13.302;2022-08-24T06:49:12;26.50;;;17.65;;
35795;SDS011;21916;52.428;13.302;2022-08-24T06:51:38;25.63;;;17.33;;
35795;SDS011;21916;52.428;13.302;2022-08-24T06:54:06;24.83;;;17.65;;
35795;SDS011;21916;52.428;13.302;2022-08-24T06:56:32;25.45;;;16.45;;
35795;SDS011;21916;52.428;13.302;2022-08-24T06:59:00;24.00;;;16.52;;
35795;SDS011;21916;52.428;13.302;2022-08-24T07:01:29;24.52;;;15.50;;
35795;SDS011;21916;52.428;13.302;2022-08-24T07:03:55;21.95;;;15.63;;
35795;SDS011;21916;52.428;13.302;2022-08-24T07:06:40;22.48;;;14.98;;
35795;SDS011;21916;52.428;13.302;2022-08-24T07:09:07;19.17;;;15.80;;
35795;SDS011;21916;52.428;13.302;2022-08-24T07:11:34;22.58;;;14.77;;
35795;SDS011;21916;52.428;13.302;2022-08-24T07:14:00;21.52;;;14.48;;
35795;SDS011;21916;52.428;13.302;2022-08-24T07:16:26;21.55;;;15.20;;
35795;SDS011;21916;52.428;13.302;2022-08-24T07:18:57;25.20;;;15.40;;
35795;SDS011;21916;52.428;13.302;2022-08-24T07:21:23;24.85;;;16.48;;
35795;SDS011;21916;52.428;13.302;2022-08-24T07:23:54;26.23;;;16.15;;
35795;SDS011;21916;52.428;13.302;2022-08-24T07:26:23;27.50;;;17.00;;
35795;SDS011;21916;52.428;13.302;2022-08-24T07:28:53;23.20;;;15.55;;
35795;SDS011;21916;52.428;13.302;2022-08-24T07:31:32;22.98;;;15.55;;
35795;SDS011;21916;52.428;13.302;2022-08-24T07:34:18;23.77;;;16.55;;
35795;SDS011;21916;52.428;13.302;2022-08-24T07:36:44;25.23;;;17.30;;
35795;SDS011;21916;52.428;13.302;2022-08-24T07:39:11;24.38;;;17.13;;
35795;SDS011;21916;52.428;13.302;2022-08-24T07:41:41;25.95;;;17.85;;
35795;SDS011;21916;52.428;13.302;2022-08-24T07:44:08;29.02;;;18.70;;
35795;SDS011;21916;52.428;13.302;2022-08-24T07:46:37;26.50;;;18.80;;
35795;SDS011;21916;52.428;13.302;2022-08-24T07:49:08;22.70;;;17.40;;
35795;SDS011;21916;52.428;13.302;2022-08-24T07:51:35;26.08;;;17.25;;
35795;SDS011;21916;52.428;13.302;2022-08-24T07:54:02;22.88;;;16.67;;
35795;SDS011;21916;52.428;13.302;2022-08-24T07:56:35;24.20;;;17.02;;
35795;SDS011;21916;52.428;13.302;2022-08-24T07:59:02;24.40;;;17.25;;
35795;SDS011;21916;52.428;13.302;2022-08-24T08:01:28;20.75;;;14.95;;
35795;SDS011;21916;52.428;13.302;2022-08-24T08:03:54;19.35;;;15.93;;
35795;SDS011;21916;52.428;13.302;2022-08-24T08:06:21;22.85;;;17.38;;
35795;SDS011;21916;52.428;13.302;2022-08-24T08:08:50;21.27;;;15.45;;
35795;SDS011;21916;52.428;13.302;2022-08-24T08:11:16;21.13;;;15.30;;
35795;SDS011;21916;52.428;13.302;2022-08-24T08:13:42;23.38;;;15.02;;
35795;SDS011;21916;52.428;13.302;2022-08-24T08:16:09;22.00;;;14.55;;
35795;SDS011;21916;52.428;13.302;2022-08-24T08:18:35;22.38;;;14.15;;
35795;SDS011;21916;52.428;13.302;2022-08-24T08:21:06;21.27;;;13.73;;
35795;SDS011;21916;52.428;13.302;2022-08-24T08:23:55;21.23;;;13.70;;
35795;SDS011;21916;52.428;13.302;2022-08-24T08:26:39;18.90;;;13.02;;
35795;SDS011;21916;52.428;13.302;2022-08-24T08:29:15;22.08;;;13.73;;
35795;SDS011;21916;52.428;13.302;2022-08-24T08:31:43;18.30;;;13.02;;
35795;SDS011;21916;52.428;13.302;2022-08-24T08:34:10;21.05;;;13.27;;
35795;SDS011;21916;52.428;13.302;2022-08-24T08:36:38;21.17;;;13.35;;
35795;SDS011;21916;52.428;13.302;2022-08-24T08:39:08;17.48;;;13.27;;
35795;SDS011;21916;52.428;13.302;2022-08-24T09:03:27;14.40;;;10.85;;
35795;SDS011;21916;52.428;13.302;2022-08-24T09:09:02;14.30;;;10.07;;
35795;SDS011;21916;52.428;13.302;2022-08-24T09:11:55;13.13;;;10.63;;
35795;SDS011;21916;52.428;13.302;2022-08-24T09:20:06;14.80;;;9.45;;
35795;SDS011;21916;52.428;13.302;2022-08-24T09:23:11;12.50;;;9.52;;
35795;SDS011;21916;52.428;13.302;2022-08-24T09:25:44;15.60;;;9.93;;
35795;SDS011;21916;52.428;13.302;2022-08-24T09:28:41;11.85;;;9.25;;
35795;SDS011;21916;52.428;13.302;2022-08-24T09:31:09;14.50;;;9.13;;
35795;SDS011;21916;52.428;13.302;2022-08-24T09:40:02;12.27;;;9.40;;
35795;SDS011;21916;52.428;13.302;2022-08-24T09:48:31;15.65;;;9.55;;
35795;SDS011;21916;52.428;13.302;2022-08-24T10:00:05;14.25;;;8.50;;
35795;SDS011;21916;52.428;13.302;2022-08-24T10:02:52;14.32;;;8.80;;
35795;SDS011;21916;52.428;13.302;2022-08-24T10:11:29;10.13;;;7.68;;
35795;SDS011;21916;52.428;13.302;2022-08-24T10:25:49;12.45;;;7.13;;
35795;SDS011;21916;52.428;13.302;2022-08-24T10:31:18;10.23;;;7.35;;
35795;SDS011;21916;52.428;13.302;2022-08-24T10:40:12;11.70;;;8.35;;
35795;SDS011;21916;52.428;13.302;2022-08-24T10:43:11;12.98;;;8.18;;
35795;SDS011;21916;52.428;13.302;2022-08-24T10:51:32;14.65;;;7.55;;
35795;SDS011;21916;52.428;13.302;2022-08-24T10:54:19;10.85;;;8.10;;
35795;SDS011;21916;52.428;13.302;2022-08-24T10:57:04;12.32;;;8.68;;
35795;SDS011;21916;52.428;13.302;2022-08-24T11:05:04;10.57;;;6.68;;
35795;SDS011;21916;52.428;13.302;2022-08-24T11:07:34;12.13;;;7.15;;
35795;SDS011;21916;52.428;13.302;2022-08-24T11:10:03;10.85;;;7.57;;
35795;SDS011;21916;52.428;13.302;2022-08-24T11:12:33;12.85;;;7.45;;
35795;SDS011;21916;52.428;13.302;2022-08-24T11:15:08;8.82;;;6.80;;
35795;SDS011;21916;52.428;13.302;2022-08-24T11:17:57;11.80;;;6.95;;
35795;SDS011;21916;52.428;13.302;2022-08-24T11:20:30;7.38;;;6.35;;
35795;SDS011;21916;52.428;13.302;2022-08-24T11:28:28;9.30;;;7.43;;
35795;SDS011;21916;52.428;13.302;2022-08-24T11:30:57;11.80;;;8.43;;
35795;SDS011;21916;52.428;13.302;2022-08-24T11:35:57;13.13;;;8.70;;
35795;SDS011;21916;52.428;13.302;2022-08-24T11:38:26;13.52;;;8.32;;
35795;SDS011;21916;52.428;13.302;2022-08-24T11:56:51;11.70;;;8.07;;
35795;SDS011;21916;52.428;13.302;2022-08-24T12:01:57;9.82;;;8.30;;
35795;SDS011;21916;52.428;13.302;2022-08-24T12:10:09;9.60;;;7.40;;
35795;SDS011;21916;52.428;13.302;2022-08-24T12:12:51;8.50;;;6.88;;
35795;SDS011;21916;52.428;13.302;2022-08-24T12:15:36;9.93;;;7.20;;
35795;SDS011;21916;52.428;13.302;2022-08-24T12:18:08;11.38;;;7.97;;
35795;SDS011;21916;52.428;13.302;2022-08-24T12:20:47;8.27;;;7.32;;
35795;SDS011;21916;52.428;13.302;2022-08-24T12:23:23;11.55;;;6.97;;
35795;SDS011;21916;52.428;13.302;2022-08-24T12:25:58;9.32;;;6.63;;
35795;SDS011;21916;52.428;13.302;2022-08-24T12:28:51;8.68;;;6.45;;
35795;SDS011;21916;52.428;13.302;2022-08-24T12:31:21;10.40;;;6.93;;
35795;SDS011;21916;52.428;13.302;2022-08-24T12:33:57;9.80;;;6.63;;
35795;SDS011;21916;52.428;13.302;2022-08-24T12:36:32;10.30;;;6.38;;
35795;SDS011;21916;52.428;13.302;2022-08-24T12:39:21;7.85;;;6.32;;
35795;SDS011;21916;52.428;13.302;2022-08-24T12:42:04;11.13;;;5.75;;
35795;SDS011;21916;52.428;13.302;2022-08-24T12:44:39;8.85;;;6.47;;
35795;SDS011;21916;52.428;13.302;2022-08-24T12:50:06;9.18;;;5.53;;
35795;SDS011;21916;52.428;13.302;2022-08-24T12:53:00;9.07;;;6.73;;
35795;SDS011;21916;52.428;13.302;2022-08-24T12:58:26;7.93;;;5.50;;
35795;SDS011;21916;52.428;13.302;2022-08-24T13:00:57;8.27;;;6.40;;
35795;SDS011;21916;52.428;13.302;2022-08-24T13:03:36;8.07;;;6.32;;
35795;SDS011;21916;52.428;13.302;2022-08-24T13:06:08;9.52;;;7.80;;
35795;SDS011;21916;52.428;13.302;2022-08-24T13:09:07;12.30;;;6.03;;
35795;SDS011;21916;52.428;13.302;2022-08-24T13:11:55;12.20;;;6.22;;
35795;SDS011;21916;52.428;13.302;2022-08-24T13:14:22;7.53;;;6.32;;
35795;SDS011;21916;52.428;13.302;2022-08-24T13:21:52;7.93;;;7.05;;
35795;SDS011;21916;52.428;13.302;2022-08-24T13:29:24;9.60;;;6.60;;
35795;SDS011;21916;52.428;13.302;2022-08-24T13:31:54;6.57;;;5.67;;
35795;SDS011;21916;52.428;13.302;2022-08-24T14:09:26;6.55;;;5.22;;
35795;SDS011;21916;52.428;13.302;2022-08-24T14:12:02;8.77;;;5.38;;
35795;SDS011;21916;52.428;13.302;2022-08-24T14:14:39;6.10;;;5.38;;
35795;SDS011;21916;52.428;13.302;2022-08-24T14:17:28;6.97;;;5.32;;
35795;SDS011;21916;52.428;13.302;2022-08-24T14:25:48;6.05;;;5.45;;
35795;SDS011;21916;52.428;13.302;2022-08-24T14:31:11;5.90;;;5.22;;
35795;SDS011;21916;52.428;13.302;2022-08-24T14:36:49;7.00;;;5.50;;
35795;SDS011;21916;52.428;13.302;2022-08-24T14:50:26;6.50;;;4.88;;
35795;SDS011;21916;52.428;13.302;2022-08-24T14:53:29;8.45;;;5.35;;
35795;SDS011;21916;52.428;13.302;2022-08-24T14:56:25;7.40;;;4.60;;
35795;SDS011;21916;52.428;13.302;2022-08-24T15:01:34;9.50;;;5.50;;
35795;SDS011;21916;52.428;13.302;2022-08-24T15:09:45;8.80;;;5.40;;
35795;SDS011;21916;52.428;13.302;2022-08-24T15:12:28;9.77;;;5.80;;
35795;SDS011;21916;52.428;13.302;2022-08-24T15:15:33;11.82;;;5.35;;
35795;SDS011;21916;52.428;13.302;2022-08-24T15:21:28;10.68;;;5.00;;
35795;SDS011;21916;52.428;13.302;2022-08-24T15:30:23;7.43;;;4.57;;
35795;SDS011;21916;52.428;13.302;2022-08-24T15:32:53;8.30;;;5.22;;
35795;SDS011;21916;52.428;13.302;2022-08-24T15:35:30;9.63;;;5.43;;
35795;SDS011;21916;52.428;13.302;2022-08-24T15:38:14;5.88;;;4.88;;
35795;SDS011;21916;52.428;13.302;2022-08-24T15:40:40;8.02;;;4.95;;
35795;SDS011;21916;52.428;13.302;2022-08-24T15:43:06;8.10;;;4.78;;
35795;SDS011;21916;52.428;13.302;2022-08-24T15:45:34;8.00;;;5.43;;
35795;SDS011;21916;52.428;13.302;2022-08-24T15:48:06;9.60;;;4.97;;
35795;SDS011;21916;52.428;13.302;2022-08-24T15:50:40;9.50;;;4.97;;
35795;SDS011;21916;52.428;13.302;2022-08-24T15:55:52;7.30;;;4.60;;
35795;SDS011;21916;52.428;13.302;2022-08-24T16:03:54;9.90;;;4.43;;
35795;SDS011;21916;52.428;13.302;2022-08-24T16:09:00;6.40;;;4.20;;
35795;SDS011;21916;52.428;13.302;2022-08-24T16:14:30;4.68;;;3.53;;
35795;SDS011;21916;52.428;13.302;2022-08-24T16:19:51;7.72;;;4.18;;
35795;SDS011;21916;52.428;13.302;2022-08-24T16:22:35;6.22;;;3.67;;
35795;SDS011;21916;52.428;13.302;2022-08-24T16:30:46;6.70;;;4.00;;
35795;SDS011;21916;52.428;13.302;2022-08-24T16:35:59;9.13;;;4.60;;
35795;SDS011;21916;52.428;13.302;2022-08-24T16:38:28;6.30;;;3.80;;
35795;SDS011;21916;52.428;13.302;2022-08-24T16:40:56;6.72;;;4.10;;
35795;SDS011;21916;52.428;13.302;2022-08-24T16:43:23;9.10;;;3.85;;
35795;SDS011;21916;52.428;13.302;2022-08-24T16:45:49;5.40;;;3.97;;
35795;SDS011;21916;52.428;13.302;2022-08-24T16:48:15;8.30;;;3.90;;
35795;SDS011;21916;52.428;13.302;2022-08-24T16:50:41;12.05;;;4.00;;
35795;SDS011;21916;52.428;13.302;2022-08-24T16:53:08;7.18;;;4.18;;
35795;SDS011;21916;52.428;13.302;2022-08-24T16:55:34;4.82;;;3.78;;
35795;SDS011;21916;52.428;13.302;2022-08-24T16:58:01;6.03;;;3.80;;
35795;SDS011;21916;52.428;13.302;2022-08-24T17:00:27;5.82;;;4.07;;
35795;SDS011;21916;52.428;13.302;2022-08-24T17:02:53;6.97;;;4.07;;
35795;SDS011;21916;52.428;13.302;2022-08-24T17:05:19;7.63;;;3.88;;
35795;SDS011;21916;52.428;13.302;2022-08-24T17:07:46;9.93;;;4.88;;
35795;SDS011;21916;52.428;13.302;2022-08-24T17:10:13;9.25;;;4.47;;
35795;SDS011;21916;52.428;13.302;2022-08-24T17:12:40;10.32;;;3.85;;
35795;SDS011;21916;52.428;13.302;2022-08-24T17:15:07;9.80;;;4.03;;
35795;SDS011;21916;52.428;13.302;2022-08-24T17:17:36;10.02;;;3.63;;
35795;SDS011;21916;52.428;13.302;2022-08-24T17:20:04;10.68;;;5.18;;
35795;SDS011;21916;52.428;13.302;2022-08-24T17:22:34;10.48;;;4.35;;
35795;SDS011;21916;52.428;13.302;2022-08-24T17:25:00;8.15;;;4.10;;
35795;SDS011;21916;52.428;13.302;2022-08-24T17:27:28;10.55;;;4.38;;
35795;SDS011;21916;52.428;13.302;2022-08-24T17:29:58;10.00;;;4.63;;
35795;SDS011;21916;52.428;13.302;2022-08-24T17:32:25;7.03;;;4.15;;
35795;SDS011;21916;52.428;13.302;2022-08-24T17:34:51;9.77;;;4.32;;
35795;SDS011;21916;52.428;13.302;2022-08-24T17:37:17;8.70;;;5.55;;
35795;SDS011;21916;52.428;13.302;2022-08-24T17:39:43;7.63;;;5.00;;
35795;SDS011;21916;52.428;13.302;2022-08-24T17:42:09;7.90;;;5.10;;
35795;SDS011;21916;52.428;13.302;2022-08-24T17:44:35;9.60;;;5.38;;
35795;SDS011;21916;52.428;13.302;2022-08-24T17:47:02;8.80;;;4.35;;
35795;SDS011;21916;52.428;13.302;2022-08-24T17:49:30;8.93;;;4.50;;
35795;SDS011;21916;52.428;13.302;2022-08-24T17:51:56;9.90;;;5.32;;
35795;SDS011;21916;52.428;13.302;2022-08-24T17:54:23;22.10;;;14.02;;
35795;SDS011;21916;52.428;13.302;2022-08-24T17:56:51;11.98;;;7.50;;
35795;SDS011;21916;52.428;13.302;2022-08-24T17:59:19;10.88;;;6.68;;
35795;SDS011;21916;52.428;13.302;2022-08-24T18:02:03;12.18;;;5.32;;
35795;SDS011;21916;52.428;13.302;2022-08-24T18:04:36;13.55;;;7.70;;
35795;SDS011;21916;52.428;13.302;2022-08-24T18:07:05;8.73;;;5.43;;
35795;SDS011;21916;52.428;13.302;2022-08-24T18:12:02;10.27;;;5.22;;
35795;SDS011;21916;52.428;13.302;2022-08-24T18:14:30;11.05;;;4.82;;
35795;SDS011;21916;52.428;13.302;2022-08-24T18:16:57;8.32;;;5.28;;
35795;SDS011;21916;52.428;13.302;2022-08-24T18:19:26;9.80;;;5.35;;
35795;SDS011;21916;52.428;13.302;2022-08-24T18:21:52;11.95;;;5.07;;
35795;SDS011;21916;52.428;13.302;2022-08-24T18:24:18;13.63;;;4.72;;
35795;SDS011;21916;52.428;13.302;2022-08-24T18:26:45;11.57;;;5.53;;
35795;SDS011;21916;52.428;13.302;2022-08-24T18:29:17;7.47;;;4.78;;
35795;SDS011;21916;52.428;13.302;2022-08-24T18:31:45;9.13;;;5.60;;
35795;SDS011;21916;52.428;13.302;2022-08-24T18:34:14;8.45;;;5.15;;
35795;SDS011;21916;52.428;13.302;2022-08-24T18:36:43;7.70;;;5.35;;
35795;SDS011;21916;52.428;13.302;2022-08-24T18:39:09;8.70;;;5.10;;
35795;SDS011;21916;52.428;13.302;2022-08-24T18:41:36;9.90;;;5.07;;
35795;SDS011;21916;52.428;13.302;2022-08-24T18:44:04;8.95;;;5.25;;
35795;SDS011;21916;52.428;13.302;2022-08-24T18:46:35;8.20;;;6.03;;